Terminal Aerodrome Forecast
Issued by NWS Grand Rapids, MI

Home | Current Version | Previous Version | Text Only | Print | Product List | Glossary On
Versions: 1 2 3 4 5 6 7 8 9 10 11 12 13 14 15 16 17 18 19 20 21 22
000
FTUS43 KGRR 021134
TAFGRR
TAF
KGRR 021134Z 0212/0312 22004KT P6SM SCT050
     FM021800 25009KT P6SM BKN050
     FM030600 VRB04KT 4SM -SHRA BR VCTS OVC035CB=

USA.gov is the U.S. government's official web portal to all federal, state and local government web resources and services.